Terminal Aerodrome Forecast
Issued by NWS

Home | Current Version | Previous Version | Text Only | Print | Product List | Glossary On
Versions: 1 2 3 4 5 6 7 8 9 10 11
000
FTUS44 KEPZ 011700 RRA
TAFDMN
TAF
KDMN 011737Z 0118/0218 27017G27KT P6SM FEW080
     FM020400 26008KT P6SM FEW250
     FM021700 26025G35KT P6SM FEW250=

USA.gov is the U.S. government's official web portal to all federal, state and local government web resources and services.